sensor_id;sensor_type;location;lat;lon;timestamp;pressure;altitude;pressure_sealevel;temperature;humidity
22333;BME280;11334;36.986;-121.936;2023-04-10T00:01:55;101446.25;;;33.68;26.63
22333;BME280;11334;36.986;-121.936;2023-04-10T00:04:21;101434.09;;;34.25;26.00
22333;BME280;11334;36.986;-121.936;2023-04-10T00:06:48;101423.22;;;34.93;25.08
22333;BME280;11334;36.986;-121.936;2023-04-10T00:09:14;101424.13;;;35.38;25.21
22333;BME280;11334;36.986;-121.936;2023-04-10T00:11:40;101422.53;;;36.09;24.18
22333;BME280;11334;36.986;-121.936;2023-04-10T00:14:06;101420.56;;;36.63;23.35
22333;BME280;11334;36.986;-121.936;2023-04-10T00:16:33;101413.53;;;37.35;22.11
22333;BME280;11334;36.986;-121.936;2023-04-10T00:18:59;101415.22;;;38.04;22.19
22333;BME280;11334;36.986;-121.936;2023-04-10T00:21:25;101418.31;;;38.66;21.65
22333;BME280;11334;36.986;-121.936;2023-04-10T00:23:51;101407.59;;;39.24;21.39
22333;BME280;11334;36.986;-121.936;2023-04-10T00:26:18;101402.56;;;39.79;20.51
22333;BME280;11334;36.986;-121.936;2023-04-10T00:28:45;101413.94;;;40.31;20.12
22333;BME280;11334;36.986;-121.936;2023-04-10T00:31:11;101405.94;;;40.79;19.88
22333;BME280;11334;36.986;-121.936;2023-04-10T00:33:37;101403.38;;;41.26;19.60
22333;BME280;11334;36.986;-121.936;2023-04-10T00:36:04;101399.91;;;41.61;19.67
22333;BME280;11334;36.986;-121.936;2023-04-10T00:38:30;101392.53;;;42.00;18.95
22333;BME280;11334;36.986;-121.936;2023-04-10T00:40:56;101398.34;;;42.43;18.92
22333;BME280;11334;36.986;-121.936;2023-04-10T00:43:23;101394.25;;;42.76;18.81
22333;BME280;11334;36.986;-121.936;2023-04-10T00:45:49;101398.97;;;43.14;18.38
22333;BME280;11334;36.986;-121.936;2023-04-10T00:48:15;101384.94;;;43.53;18.51
22333;BME280;11334;36.986;-121.936;2023-04-10T00:50:42;101392.34;;;43.76;18.61
22333;BME280;11334;36.986;-121.936;2023-04-10T00:53:08;101392.53;;;43.98;18.57
22333;BME280;11334;36.986;-121.936;2023-04-10T00:55:34;101392.81;;;44.24;18.41
22333;BME280;11334;36.986;-121.936;2023-04-10T00:58:01;101394.91;;;44.45;18.60
22333;BME280;11334;36.986;-121.936;2023-04-10T01:00:28;101395.78;;;44.65;18.18
22333;BME280;11334;36.986;-121.936;2023-04-10T01:02:54;101388.44;;;44.76;18.24
22333;BME280;11334;36.986;-121.936;2023-04-10T01:05:21;101397.25;;;44.93;18.40
22333;BME280;11334;36.986;-121.936;2023-04-10T01:10:24;101390.84;;;45.14;18.10
22333;BME280;11334;36.986;-121.936;2023-04-10T01:15:24;101388.16;;;45.18;17.98
22333;BME280;11334;36.986;-121.936;2023-04-10T01:20:26;101377.38;;;45.01;17.95
22333;BME280;11334;36.986;-121.936;2023-04-10T01:26:02;101387.69;;;44.44;19.01
22333;BME280;11334;36.986;-121.936;2023-04-10T01:28:52;101386.22;;;43.71;19.09
22333;BME280;11334;36.986;-121.936;2023-04-10T01:31:44;101383.41;;;42.74;20.42
22333;BME280;11334;36.986;-121.936;2023-04-10T01:34:21;101384.63;;;41.35;20.89
22333;BME280;11334;36.986;-121.936;2023-04-10T01:36:52;101379.56;;;40.07;22.01
22333;BME280;11334;36.986;-121.936;2023-04-10T01:39:23;101380.34;;;38.75;22.96
22333;BME280;11334;36.986;-121.936;2023-04-10T01:41:51;101382.44;;;37.60;23.83
22333;BME280;11334;36.986;-121.936;2023-04-10T01:44:22;101381.03;;;36.49;24.63
22333;BME280;11334;36.986;-121.936;2023-04-10T01:46:52;101374.34;;;35.30;26.45
22333;BME280;11334;36.986;-121.936;2023-04-10T01:49:19;101377.47;;;34.38;28.26
22333;BME280;11334;36.986;-121.936;2023-04-10T01:51:46;101380.19;;;33.45;29.87
22333;BME280;11334;36.986;-121.936;2023-04-10T01:54:14;101374.44;;;32.80;31.23
22333;BME280;11334;36.986;-121.936;2023-04-10T01:56:42;101377.34;;;31.93;33.01
22333;BME280;11334;36.986;-121.936;2023-04-10T01:59:08;101373.13;;;31.28;33.21
22333;BME280;11334;36.986;-121.936;2023-04-10T02:01:35;101359.06;;;30.66;34.23
22333;BME280;11334;36.986;-121.936;2023-04-10T02:04:01;101370.72;;;30.12;35.44
22333;BME280;11334;36.986;-121.936;2023-04-10T02:06:49;101381.16;;;29.02;37.14
22333;BME280;11334;36.986;-121.936;2023-04-10T02:09:24;101377.16;;;28.79;37.56
22333;BME280;11334;36.986;-121.936;2023-04-10T02:12:08;101386.84;;;28.44;37.91
22333;BME280;11334;36.986;-121.936;2023-04-10T02:14:39;101385.91;;;27.91;39.37
22333;BME280;11334;36.986;-121.936;2023-04-10T02:17:07;101380.78;;;27.36;40.61
22333;BME280;11334;36.986;-121.936;2023-04-10T02:19:34;101378.34;;;26.91;41.31
22333;BME280;11334;36.986;-121.936;2023-04-10T02:22:03;101388.16;;;26.48;42.14
22333;BME280;11334;36.986;-121.936;2023-04-10T02:24:31;101383.22;;;26.17;42.60
22333;BME280;11334;36.986;-121.936;2023-04-10T02:26:58;101385.66;;;25.80;43.04
22333;BME280;11334;36.986;-121.936;2023-04-10T02:29:24;101381.16;;;25.40;43.97
22333;BME280;11334;36.986;-121.936;2023-04-10T02:31:51;101402.41;;;25.09;44.11
22333;BME280;11334;36.986;-121.936;2023-04-10T02:34:17;101396.38;;;24.96;44.01
22333;BME280;11334;36.986;-121.936;2023-04-10T02:36:43;101387.47;;;24.48;45.39
22333;BME280;11334;36.986;-121.936;2023-04-10T02:39:09;101400.25;;;24.30;45.44
22333;BME280;11334;36.986;-121.936;2023-04-10T02:41:36;101403.94;;;24.18;45.51
22333;BME280;11334;36.986;-121.936;2023-04-10T02:44:02;101413.50;;;24.03;45.19
22333;BME280;11334;36.986;-121.936;2023-04-10T02:46:28;101409.16;;;23.84;45.63
22333;BME280;11334;36.986;-121.936;2023-04-10T02:48:54;101401.78;;;23.55;46.74
22333;BME280;11334;36.986;-121.936;2023-04-10T02:51:21;101416.13;;;23.32;47.97
22333;BME280;11334;36.986;-121.936;2023-04-10T02:53:47;101410.56;;;23.03;48.32
22333;BME280;11334;36.986;-121.936;2023-04-10T02:56:14;101426.69;;;22.91;49.19
22333;BME280;11334;36.986;-121.936;2023-04-10T02:58:40;101421.44;;;22.66;49.85
22333;BME280;11334;36.986;-121.936;2023-04-10T03:01:10;101434.41;;;22.51;50.78
22333;BME280;11334;36.986;-121.936;2023-04-10T03:03:36;101433.88;;;22.30;50.91
22333;BME280;11334;36.986;-121.936;2023-04-10T03:06:02;101422.53;;;22.15;50.77
22333;BME280;11334;36.986;-121.936;2023-04-10T03:08:29;101422.38;;;21.97;51.78
22333;BME280;11334;36.986;-121.936;2023-04-10T03:10:55;101430.13;;;21.75;52.82
22333;BME280;11334;36.986;-121.936;2023-04-10T03:13:21;101423.75;;;21.44;53.87
22333;BME280;11334;36.986;-121.936;2023-04-10T03:15:50;101408.19;;;21.33;54.26
22333;BME280;11334;36.986;-121.936;2023-04-10T03:18:17;101419.00;;;21.20;55.23
22333;BME280;11334;36.986;-121.936;2023-04-10T03:20:43;101425.63;;;21.18;55.79
22333;BME280;11334;36.986;-121.936;2023-04-10T03:23:09;101431.19;;;20.97;56.47
22333;BME280;11334;36.986;-121.936;2023-04-10T03:25:36;101409.19;;;20.68;57.49
22333;BME280;11334;36.986;-121.936;2023-04-10T03:28:02;101434.28;;;20.68;58.44
22333;BME280;11334;36.986;-121.936;2023-04-10T03:30:29;101421.34;;;20.45;58.97
22333;BME280;11334;36.986;-121.936;2023-04-10T03:32:55;101434.81;;;20.45;59.67
22333;BME280;11334;36.986;-121.936;2023-04-10T03:35:21;101428.34;;;20.33;59.94
22333;BME280;11334;36.986;-121.936;2023-04-10T03:37:48;101430.81;;;20.22;60.36
22333;BME280;11334;36.986;-121.936;2023-04-10T03:40:14;101433.25;;;20.10;61.23
22333;BME280;11334;36.986;-121.936;2023-04-10T03:42:40;101436.16;;;20.09;61.58
22333;BME280;11334;36.986;-121.936;2023-04-10T03:45:07;101437.75;;;20.03;62.26
22333;BME280;11334;36.986;-121.936;2023-04-10T03:47:33;101438.75;;;19.90;62.42
22333;BME280;11334;36.986;-121.936;2023-04-10T03:50:00;101451.97;;;19.91;62.69
22333;BME280;11334;36.986;-121.936;2023-04-10T03:52:26;101441.53;;;19.75;63.54
22333;BME280;11334;36.986;-121.936;2023-04-10T03:54:53;101440.47;;;19.70;63.20
22333;BME280;11334;36.986;-121.936;2023-04-10T03:57:20;101445.78;;;19.63;63.80
22333;BME280;11334;36.986;-121.936;2023-04-10T03:59:46;101447.81;;;19.55;64.68
22333;BME280;11334;36.986;-121.936;2023-04-10T04:02:13;101454.75;;;19.43;65.32
22333;BME280;11334;36.986;-121.936;2023-04-10T04:04:39;101456.38;;;19.38;65.54
22333;BME280;11334;36.986;-121.936;2023-04-10T04:07:06;101473.31;;;19.38;65.35
22333;BME280;11334;36.986;-121.936;2023-04-10T04:09:32;101462.97;;;19.35;64.92
22333;BME280;11334;36.986;-121.936;2023-04-10T04:11:58;101473.88;;;19.28;65.19
22333;BME280;11334;36.986;-121.936;2023-04-10T04:14:24;101469.47;;;19.20;65.76
22333;BME280;11334;36.986;-121.936;2023-04-10T04:16:53;101473.06;;;19.06;67.09
22333;BME280;11334;36.986;-121.936;2023-04-10T04:19:19;101479.72;;;19.10;66.70
22333;BME280;11334;36.986;-121.936;2023-04-10T04:21:46;101479.97;;;18.95;67.41
22333;BME280;11334;36.986;-121.936;2023-04-10T04:24:12;101474.81;;;18.79;68.82
22333;BME280;11334;36.986;-121.936;2023-04-10T04:26:39;101481.16;;;18.71;69.04
22333;BME280;11334;36.986;-121.936;2023-04-10T04:29:05;101484.97;;;18.63;67.76
22333;BME280;11334;36.986;-121.936;2023-04-10T04:31:31;101484.34;;;18.61;67.63
22333;BME280;11334;36.986;-121.936;2023-04-10T04:33:58;101463.22;;;18.37;67.93
22333;BME280;11334;36.986;-121.936;2023-04-10T04:36:25;101478.81;;;18.48;67.25
22333;BME280;11334;36.986;-121.936;2023-04-10T04:38:52;101477.75;;;18.28;68.55
22333;BME280;11334;36.986;-121.936;2023-04-10T04:41:19;101475.59;;;18.38;66.81
22333;BME280;11334;36.986;-121.936;2023-04-10T04:43:45;101459.63;;;18.16;66.94
22333;BME280;11334;36.986;-121.936;2023-04-10T04:46:15;101478.50;;;18.22;67.91
22333;BME280;11334;36.986;-121.936;2023-04-10T04:48:42;101475.38;;;18.19;68.01
22333;BME280;11334;36.986;-121.936;2023-04-10T04:51:08;101480.66;;;18.12;68.38
22333;BME280;11334;36.986;-121.936;2023-04-10T04:53:34;101472.41;;;18.14;67.87
22333;BME280;11334;36.986;-121.936;2023-04-10T04:56:01;101471.38;;;18.01;68.00
22333;BME280;11334;36.986;-121.936;2023-04-10T04:58:27;101482.41;;;18.05;67.43
22333;BME280;11334;36.986;-121.936;2023-04-10T05:00:54;101485.91;;;17.92;69.45
22333;BME280;11334;36.986;-121.936;2023-04-10T05:03:20;101492.47;;;17.89;69.17
22333;BME280;11334;36.986;-121.936;2023-04-10T05:05:46;101492.81;;;17.86;69.12
22333;BME280;11334;36.986;-121.936;2023-04-10T05:08:12;101492.47;;;17.89;69.44
22333;BME280;11334;36.986;-121.936;2023-04-10T05:10:39;101491.91;;;17.79;69.60
22333;BME280;11334;36.986;-121.936;2023-04-10T05:13:05;101491.44;;;17.76;71.37
22333;BME280;11334;36.986;-121.936;2023-04-10T05:15:31;101491.44;;;17.76;72.26
22333;BME280;11334;36.986;-121.936;2023-04-10T05:17:57;101498.84;;;17.60;74.15
22333;BME280;11334;36.986;-121.936;2023-04-10T05:20:23;101498.28;;;17.64;74.27
22333;BME280;11334;36.986;-121.936;2023-04-10T05:22:50;101499.94;;;17.65;74.48
22333;BME280;11334;36.986;-121.936;2023-04-10T05:25:18;101483.97;;;17.57;74.40
22333;BME280;11334;36.986;-121.936;2023-04-10T05:27:44;101478.03;;;17.47;74.90
22333;BME280;11334;36.986;-121.936;2023-04-10T05:30:11;101484.22;;;17.48;74.91
22333;BME280;11334;36.986;-121.936;2023-04-10T05:32:37;101491.97;;;17.43;75.11
22333;BME280;11334;36.986;-121.936;2023-04-10T05:35:03;101486.03;;;17.33;75.49
22333;BME280;11334;36.986;-121.936;2023-04-10T05:37:30;101481.13;;;17.37;75.21
22333;BME280;11334;36.986;-121.936;2023-04-10T05:39:56;101476.97;;;17.34;75.32
22333;BME280;11334;36.986;-121.936;2023-04-10T05:42:22;101482.59;;;17.25;75.72
22333;BME280;11334;36.986;-121.936;2023-04-10T05:44:49;101479.28;;;17.23;75.47
22333;BME280;11334;36.986;-121.936;2023-04-10T05:47:15;101480.84;;;17.17;76.62
22333;BME280;11334;36.986;-121.936;2023-04-10T05:49:41;101473.66;;;17.10;77.24
22333;BME280;11334;36.986;-121.936;2023-04-10T05:52:08;101478.16;;;17.09;77.33
22333;BME280;11334;36.986;-121.936;2023-04-10T05:54:34;101468.66;;;17.07;77.54
22333;BME280;11334;36.986;-121.936;2023-04-10T05:57:00;101472.06;;;17.01;77.52
22333;BME280;11334;36.986;-121.936;2023-04-10T05:59:27;101477.13;;;16.96;78.09
22333;BME280;11334;36.986;-121.936;2023-04-10T06:01:53;101461.88;;;16.97;77.88
22333;BME280;11334;36.986;-121.936;2023-04-10T06:04:19;101474.63;;;16.95;77.76
22333;BME280;11334;36.986;-121.936;2023-04-10T06:06:48;101461.19;;;16.80;78.12
22333;BME280;11334;36.986;-121.936;2023-04-10T06:09:14;101470.88;;;16.81;79.20
22333;BME280;11334;36.986;-121.936;2023-04-10T06:11:41;101461.59;;;16.70;79.84
22333;BME280;11334;36.986;-121.936;2023-04-10T06:14:07;101468.19;;;16.59;80.51
22333;BME280;11334;36.986;-121.936;2023-04-10T06:16:33;101469.81;;;16.68;79.78
22333;BME280;11334;36.986;-121.936;2023-04-10T06:19:00;101465.00;;;16.64;79.88
22333;BME280;11334;36.986;-121.936;2023-04-10T06:21:26;101461.00;;;16.60;80.57
22333;BME280;11334;36.986;-121.936;2023-04-10T06:23:52;101456.88;;;16.49;81.00
22333;BME280;11334;36.986;-121.936;2023-04-10T06:26:19;101459.09;;;16.46;80.81
22333;BME280;11334;36.986;-121.936;2023-04-10T06:28:45;101453.66;;;16.32;81.59
22333;BME280;11334;36.986;-121.936;2023-04-10T06:31:11;101458.44;;;16.44;80.65
22333;BME280;11334;36.986;-121.936;2023-04-10T06:33:38;101453.44;;;16.41;80.07
22333;BME280;11334;36.986;-121.936;2023-04-10T06:36:04;101452.00;;;16.31;81.22
22333;BME280;11334;36.986;-121.936;2023-04-10T06:38:31;101455.16;;;16.34;80.96
22333;BME280;11334;36.986;-121.936;2023-04-10T06:41:03;101456.19;;;16.25;81.03
22333;BME280;11334;36.986;-121.936;2023-04-10T06:43:34;101456.44;;;16.16;82.02
22333;BME280;11334;36.986;-121.936;2023-04-10T06:46:04;101457.72;;;16.20;81.77
22333;BME280;11334;36.986;-121.936;2023-04-10T06:48:34;101457.63;;;16.13;81.93
22333;BME280;11334;36.986;-121.936;2023-04-10T06:51:00;101453.94;;;16.07;82.11
22333;BME280;11334;36.986;-121.936;2023-04-10T06:53:26;101452.13;;;15.99;82.25
22333;BME280;11334;36.986;-121.936;2023-04-10T06:55:52;101452.13;;;15.99;82.74
22333;BME280;11334;36.986;-121.936;2023-04-10T06:58:19;101455.78;;;15.98;82.36
22333;BME280;11334;36.986;-121.936;2023-04-10T07:00:45;101451.63;;;15.96;82.33
22333;BME280;11334;36.986;-121.936;2023-04-10T07:03:11;101450.34;;;15.92;82.26
22333;BME280;11334;36.986;-121.936;2023-04-10T07:05:38;101454.34;;;15.88;82.47
22333;BME280;11334;36.986;-121.936;2023-04-10T07:08:04;101455.03;;;15.82;82.73
22333;BME280;11334;36.986;-121.936;2023-04-10T07:10:30;101450.53;;;15.82;82.72
22333;BME280;11334;36.986;-121.936;2023-04-10T07:12:56;101451.19;;;15.84;82.39
22333;BME280;11334;36.986;-121.936;2023-04-10T07:15:23;101452.22;;;15.76;82.66
22333;BME280;11334;36.986;-121.936;2023-04-10T07:17:50;101415.22;;;15.49;82.24
22333;BME280;11334;36.986;-121.936;2023-04-10T07:20:17;101456.94;;;15.58;82.63
22333;BME280;11334;36.986;-121.936;2023-04-10T07:22:43;101452.59;;;15.65;82.00
22333;BME280;11334;36.986;-121.936;2023-04-10T07:25:10;101456.78;;;15.59;82.33
22333;BME280;11334;36.986;-121.936;2023-04-10T07:27:36;101456.13;;;15.57;82.26
22333;BME280;11334;36.986;-121.936;2023-04-10T07:30:02;101453.13;;;15.52;82.60
22333;BME280;11334;36.986;-121.936;2023-04-10T07:32:29;101452.31;;;15.52;82.58
22333;BME280;11334;36.986;-121.936;2023-04-10T07:34:55;101445.78;;;15.54;81.74
22333;BME280;11334;36.986;-121.936;2023-04-10T07:37:21;101451.97;;;15.55;82.12
22333;BME280;11334;36.986;-121.936;2023-04-10T07:39:47;101453.63;;;15.56;82.00
22333;BME280;11334;36.986;-121.936;2023-04-10T07:42:13;101453.13;;;15.52;81.88
22333;BME280;11334;36.986;-121.936;2023-04-10T07:44:40;101449.31;;;15.47;81.90
22333;BME280;11334;36.986;-121.936;2023-04-10T07:47:09;101448.66;;;15.37;81.69
22333;BME280;11334;36.986;-121.936;2023-04-10T07:49:36;101445.13;;;15.37;81.94
22333;BME280;11334;36.986;-121.936;2023-04-10T07:52:02;101444.16;;;15.38;81.78
22333;BME280;11334;36.986;-121.936;2023-04-10T07:54:31;101445.50;;;15.26;82.70
22333;BME280;11334;36.986;-121.936;2023-04-10T07:56:58;101432.31;;;15.24;82.60
22333;BME280;11334;36.986;-121.936;2023-04-10T07:59:26;101441.47;;;15.38;82.73
22333;BME280;11334;36.986;-121.936;2023-04-10T08:01:53;101416.50;;;15.15;82.77
22333;BME280;11334;36.986;-121.936;2023-04-10T08:04:20;101437.66;;;15.24;82.70
22333;BME280;11334;36.986;-121.936;2023-04-10T08:06:46;101431.03;;;15.13;83.62
22333;BME280;11334;36.986;-121.936;2023-04-10T08:09:14;101430.81;;;15.06;84.18
22333;BME280;11334;36.986;-121.936;2023-04-10T08:11:40;101424.16;;;15.02;84.03
22333;BME280;11334;36.986;-121.936;2023-04-10T08:14:06;101426.66;;;15.12;83.49
22333;BME280;11334;36.986;-121.936;2023-04-10T08:16:34;101430.50;;;15.17;83.42
22333;BME280;11334;36.986;-121.936;2023-04-10T08:19:01;101431.19;;;15.11;83.77
22333;BME280;11334;36.986;-121.936;2023-04-10T08:21:29;101418.31;;;14.99;83.44
22333;BME280;11334;36.986;-121.936;2023-04-10T08:24:01;101427.66;;;15.03;83.99
22333;BME280;11334;36.986;-121.936;2023-04-10T08:26:28;101414.66;;;14.92;84.07
22333;BME280;11334;36.986;-121.936;2023-04-10T08:28:55;101420.31;;;14.97;84.01
22333;BME280;11334;36.986;-121.936;2023-04-10T08:31:23;101433.31;;;14.92;83.83
22333;BME280;11334;36.986;-121.936;2023-04-10T08:33:50;101426.34;;;14.91;83.64
22333;BME280;11334;36.986;-121.936;2023-04-10T08:36:17;101427.34;;;14.90;82.89
22333;BME280;11334;36.986;-121.936;2023-04-10T08:38:44;101424.16;;;14.86;82.42
22333;BME280;11334;36.986;-121.936;2023-04-10T08:41:15;101433.00;;;14.79;83.04
22333;BME280;11334;36.986;-121.936;2023-04-10T08:43:41;101427.16;;;14.84;82.96
22333;BME280;11334;36.986;-121.936;2023-04-10T08:46:10;101425.00;;;14.87;82.52
22333;BME280;11334;36.986;-121.936;2023-04-10T08:51:41;101418.16;;;14.69;83.22
22333;BME280;11334;36.986;-121.936;2023-04-10T08:54:13;101401.81;;;14.56;83.01
22333;BME280;11334;36.986;-121.936;2023-04-10T08:56:48;101417.16;;;14.62;82.75
22333;BME280;11334;36.986;-121.936;2023-04-10T08:59:15;101404.31;;;14.57;82.92
22333;BME280;11334;36.986;-121.936;2023-04-10T09:01:42;101415.50;;;14.53;83.78
22333;BME280;11334;36.986;-121.936;2023-04-10T09:04:10;101401.97;;;14.39;84.29
22333;BME280;11334;36.986;-121.936;2023-04-10T09:06:37;101406.97;;;14.42;84.06
22333;BME280;11334;36.986;-121.936;2023-04-10T09:09:07;101398.47;;;14.38;83.63
22333;BME280;11334;36.986;-121.936;2023-04-10T09:14:28;101412.16;;;14.51;82.68
22333;BME280;11334;36.986;-121.936;2023-04-10T09:17:11;101409.50;;;14.43;83.23
22333;BME280;11334;36.986;-121.936;2023-04-10T09:19:38;101389.97;;;14.27;83.72
22333;BME280;11334;36.986;-121.936;2023-04-10T09:22:04;101387.09;;;14.21;84.18
22333;BME280;11334;36.986;-121.936;2023-04-10T09:24:35;101397.81;;;14.28;84.34
22333;BME280;11334;36.986;-121.936;2023-04-10T09:27:05;101388.13;;;14.35;83.67
22333;BME280;11334;36.986;-121.936;2023-04-10T09:29:45;101391.31;;;14.39;83.33
22333;BME280;11334;36.986;-121.936;2023-04-10T09:32:39;101384.47;;;14.36;83.39
22333;BME280;11334;36.986;-121.936;2023-04-10T09:35:06;101372.78;;;14.14;84.60
22333;BME280;11334;36.986;-121.936;2023-04-10T09:37:36;101353.94;;;14.07;84.71
22333;BME280;11334;36.986;-121.936;2023-04-10T09:40:03;101380.47;;;14.24;84.16
22333;BME280;11334;36.986;-121.936;2023-04-10T09:42:34;101392.09;;;14.16;84.47
22333;BME280;11334;36.986;-121.936;2023-04-10T09:45:04;101369.94;;;14.07;85.48
22333;BME280;11334;36.986;-121.936;2023-04-10T09:47:31;101368.63;;;14.19;84.85
22333;BME280;11334;36.986;-121.936;2023-04-10T09:49:59;101368.97;;;14.24;84.00
22333;BME280;11334;36.986;-121.936;2023-04-10T09:52:31;101353.78;;;14.09;84.76
22333;BME280;11334;36.986;-121.936;2023-04-10T09:55:07;101355.25;;;14.03;85.57
22333;BME280;11334;36.986;-121.936;2023-04-10T09:57:34;101353.63;;;14.10;84.88
22333;BME280;11334;36.986;-121.936;2023-04-10T10:00:03;101347.78;;;14.15;84.05
22333;BME280;11334;36.986;-121.936;2023-04-10T10:02:37;101342.94;;;14.10;84.03
22333;BME280;11334;36.986;-121.936;2023-04-10T10:05:07;101340.38;;;13.93;85.41
22333;BME280;11334;36.986;-121.936;2023-04-10T10:07:33;101338.25;;;13.96;85.90
22333;BME280;11334;36.986;-121.936;2023-04-10T10:10:01;101338.09;;;14.06;84.60
22333;BME280;11334;36.986;-121.936;2023-04-10T10:12:53;101329.41;;;13.96;85.26
22333;BME280;11334;36.986;-121.936;2023-04-10T10:20:35;101331.41;;;13.94;85.12
22333;BME280;11334;36.986;-121.936;2023-04-10T10:23:06;101325.59;;;13.98;85.71
22333;BME280;11334;36.986;-121.936;2023-04-10T10:25:34;101321.25;;;13.89;86.38
22333;BME280;11334;36.986;-121.936;2023-04-10T10:28:04;101310.09;;;13.86;86.18
22333;BME280;11334;36.986;-121.936;2023-04-10T10:30:33;101316.25;;;13.87;86.38
22333;BME280;11334;36.986;-121.936;2023-04-10T10:33:04;101317.22;;;13.86;87.25
22333;BME280;11334;36.986;-121.936;2023-04-10T10:35:32;101318.75;;;13.88;87.04
22333;BME280;11334;36.986;-121.936;2023-04-10T10:37:59;101312.56;;;13.80;87.76
22333;BME280;11334;36.986;-121.936;2023-04-10T10:41:11;101313.06;;;13.91;87.42
22333;BME280;11334;36.986;-121.936;2023-04-10T10:43:44;101311.75;;;13.87;87.50
22333;BME280;11334;36.986;-121.936;2023-04-10T10:46:48;101308.59;;;13.84;87.79
22333;BME280;11334;36.986;-121.936;2023-04-10T10:49:16;101306.91;;;13.90;87.22
22333;BME280;11334;36.986;-121.936;2023-04-10T10:51:46;101304.25;;;13.90;87.54
22333;BME280;11334;36.986;-121.936;2023-04-10T10:54:32;101298.09;;;13.82;88.08
22333;BME280;11334;36.986;-121.936;2023-04-10T10:57:00;101298.78;;;13.84;88.00
22333;BME280;11334;36.986;-121.936;2023-04-10T11:02:18;101294.41;;;13.83;87.58
22333;BME280;11334;36.986;-121.936;2023-04-10T11:04:46;101272.97;;;13.77;87.18
22333;BME280;11334;36.986;-121.936;2023-04-10T11:07:14;101288.78;;;13.86;87.34
22333;BME280;11334;36.986;-121.936;2023-04-10T11:09:50;101284.94;;;13.81;87.65
22333;BME280;11334;36.986;-121.936;2023-04-10T11:12:24;101278.09;;;13.78;87.63
22333;BME280;11334;36.986;-121.936;2023-04-10T11:15:16;101281.28;;;13.82;88.00
22333;BME280;11334;36.986;-121.936;2023-04-10T11:17:51;101279.44;;;13.82;87.97
22333;BME280;11334;36.986;-121.936;2023-04-10T11:20:19;101269.75;;;13.73;87.44
22333;BME280;11334;36.986;-121.936;2023-04-10T11:23:09;101277.94;;;13.72;88.63
22333;BME280;11334;36.986;-121.936;2023-04-10T11:25:52;101285.41;;;13.68;88.39
22333;BME280;11334;36.986;-121.936;2023-04-10T11:28:37;101269.13;;;13.71;87.91
22333;BME280;11334;36.986;-121.936;2023-04-10T11:31:21;101255.94;;;13.62;88.46
22333;BME280;11334;36.986;-121.936;2023-04-10T11:33:52;101266.59;;;13.70;88.06
22333;BME280;11334;36.986;-121.936;2023-04-10T11:36:25;101270.44;;;13.67;88.79
22333;BME280;11334;36.986;-121.936;2023-04-10T11:38:58;101270.75;;;13.64;88.91
22333;BME280;11334;36.986;-121.936;2023-04-10T11:41:49;101269.59;;;13.59;89.57
22333;BME280;11334;36.986;-121.936;2023-04-10T11:46:46;101280.38;;;13.50;90.04
22333;BME280;11334;36.986;-121.936;2023-04-10T11:49:23;101275.38;;;13.47;90.76
22333;BME280;11334;36.986;-121.936;2023-04-10T11:51:50;101278.69;;;13.49;90.88
22333;BME280;11334;36.986;-121.936;2023-04-10T11:54:19;101278.69;;;13.49;89.96
22333;BME280;11334;36.986;-121.936;2023-04-10T11:59:22;101285.00;;;13.40;91.11
22333;BME280;11334;36.986;-121.936;2023-04-10T12:01:50;101283.03;;;13.42;91.18
22333;BME280;11334;36.986;-121.936;2023-04-10T12:04:20;101295.66;;;13.40;91.00
22333;BME280;11334;36.986;-121.936;2023-04-10T12:06:50;101292.50;;;13.44;90.29
22333;BME280;11334;36.986;-121.936;2023-04-10T12:09:19;101291.50;;;13.37;91.05
22333;BME280;11334;36.986;-121.936;2023-04-10T12:14:32;101293.59;;;13.26;91.81
22333;BME280;11334;36.986;-121.936;2023-04-10T12:17:01;101290.59;;;13.29;91.64
22333;BME280;11334;36.986;-121.936;2023-04-10T12:19:27;101286.44;;;13.26;91.85
22333;BME280;11334;36.986;-121.936;2023-04-10T12:21:55;101281.91;;;13.19;92.18
22333;BME280;11334;36.986;-121.936;2023-04-10T12:24:45;101286.59;;;13.17;93.08
22333;BME280;11334;36.986;-121.936;2023-04-10T12:27:19;101282.25;;;13.16;93.64
22333;BME280;11334;36.986;-121.936;2023-04-10T12:29:48;101285.09;;;13.15;93.37
22333;BME280;11334;36.986;-121.936;2023-04-10T12:32:15;101281.63;;;13.22;93.07
22333;BME280;11334;36.986;-121.936;2023-04-10T12:34:41;101280.63;;;13.23;93.16
22333;BME280;11334;36.986;-121.936;2023-04-10T12:37:07;101281.44;;;13.24;93.16
22333;BME280;11334;36.986;-121.936;2023-04-10T12:39:37;101278.44;;;13.26;93.22
22333;BME280;11334;36.986;-121.936;2023-04-10T12:45:14;101276.47;;;13.28;93.67
22333;BME280;11334;36.986;-121.936;2023-04-10T12:47:48;101266.16;;;13.26;93.67
22333;BME280;11334;36.986;-121.936;2023-04-10T12:50:17;101266.97;;;13.18;93.79
22333;BME280;11334;36.986;-121.936;2023-04-10T12:53:00;101264.44;;;13.17;94.10
22333;BME280;11334;36.986;-121.936;2023-04-10T12:55:26;101262.94;;;13.14;94.86
22333;BME280;11334;36.986;-121.936;2023-04-10T12:57:53;101262.78;;;13.16;94.85
22333;BME280;11334;36.986;-121.936;2023-04-10T13:00:21;101264.97;;;13.20;93.65
22333;BME280;11334;36.986;-121.936;2023-04-10T13:02:47;101259.31;;;13.23;93.94
22333;BME280;11334;36.986;-121.936;2023-04-10T13:05:14;101257.16;;;13.26;93.64